Time;durP1;ratioP1;P1;durP2;ratioP2;P2;SDS_P1;SDS_P2;PMS_P1;PMS_P2;Temp;Humidity;BMP_temperature;BMP_pressure;BME280_temperature;BME280_humidity;BME280_pressure;Samples;Min_cycle;Max_cycle;Signal;HPM_P1;HPM_P2
2023/06/19 00:01:33;;;;;;;8.45;4.85;;;;;;;;;;5052049;28;20049;-69
2023/06/19 00:04:00;;;;;;;6.68;4.40;;;;;;;;;;5052456;28;20053;-69
2023/06/19 00:06:28;;;;;;;5.88;4.82;;;;;;;;;;5038120;28;20044;-69
2023/06/19 00:08:55;;;;;;;5.80;4.20;;;;;;;;;;5038464;28;20107;-69
2023/06/19 00:11:24;;;;;;;5.35;4.20;;;;;;;;;;5026567;28;20041;-69
2023/06/19 00:13:51;;;;;;;5.45;4.30;;;;;;;;;;5039068;28;20060;-69
2023/06/19 00:16:19;;;;;;;6.15;4.45;;;;;;;;;;5036246;28;20049;-69
2023/06/19 00:18:46;;;;;;;4.95;4.28;;;;;;;;;;5027365;28;20508;-69
2023/06/19 00:21:13;;;;;;;5.03;4.10;;;;;;;;;;5058635;28;20056;-69
2023/06/19 00:23:40;;;;;;;4.50;3.80;;;;;;;;;;5043572;28;20053;-69
2023/06/19 00:26:07;;;;;;;10.38;4.07;;;;;;;;;;5049766;28;20507;-69
2023/06/19 00:28:41;;;;;;;6.25;3.88;;;;;;;;;;5041296;28;20049;-69
2023/06/19 00:31:08;;;;;;;5.68;3.97;;;;;;;;;;5038148;28;20060;-69
2023/06/19 00:33:35;;;;;;;4.90;3.90;;;;;;;;;;5043142;28;20045;-69
2023/06/19 00:36:03;;;;;;;4.43;3.47;;;;;;;;;;5041607;28;20405;-69
2023/06/19 00:38:30;;;;;;;6.78;3.80;;;;;;;;;;5039309;28;20060;-69
2023/06/19 00:40:57;;;;;;;5.47;4.18;;;;;;;;;;5037194;28;20049;-69
2023/06/19 00:43:24;;;;;;;5.80;4.43;;;;;;;;;;5041261;28;20053;-69
2023/06/19 00:45:53;;;;;;;6.10;4.30;;;;;;;;;;5046189;28;20156;-69
2023/06/19 00:48:20;;;;;;;5.97;4.10;;;;;;;;;;5049233;28;20049;-69
2023/06/19 00:50:47;;;;;;;5.70;4.05;;;;;;;;;;5019921;28;20046;-69
2023/06/19 00:53:15;;;;;;;7.50;4.20;;;;;;;;;;5025016;28;20061;-69
2023/06/19 00:55:43;;;;;;;5.32;4.10;;;;;;;;;;5048034;28;20049;-69
2023/06/19 00:58:10;;;;;;;6.57;4.28;;;;;;;;;;5045074;28;20518;-69
2023/06/19 01:00:38;;;;;;;5.13;3.80;;;;;;;;;;5045895;28;20434;-69
2023/06/19 01:03:06;;;;;;;6.05;3.85;;;;;;;;;;5043656;28;20051;-69
2023/06/19 01:05:33;;;;;;;5.13;3.70;;;;;;;;;;5042733;28;20061;-69
2023/06/19 01:08:04;;;;;;;5.22;3.88;;;;;;;;;;5048202;28;20081;-69
2023/06/19 01:10:37;;;;;;;4.57;3.50;;;;;;;;;;5033374;28;20399;-69
2023/06/19 01:13:09;;;;;;;4.30;3.45;;;;;;;;;;5037465;28;20049;-69
2023/06/19 01:15:37;;;;;;;5.07;3.70;;;;;;;;;;5018399;28;20397;-69
2023/06/19 01:18:05;;;;;;;5.85;3.30;;;;;;;;;;5045960;28;20397;-68
2023/06/19 01:20:34;;;;;;;4.55;3.53;;;;;;;;;;5055226;28;20384;-69
2023/06/19 01:23:08;;;;;;;5.65;3.55;;;;;;;;;;5046884;28;20049;-69
2023/06/19 01:25:35;;;;;;;6.38;3.78;;;;;;;;;;5044209;28;20054;-69
2023/06/19 01:28:04;;;;;;;5.30;3.47;;;;;;;;;;5040021;28;20058;-69
2023/06/19 01:30:31;;;;;;;4.95;3.60;;;;;;;;;;5023748;28;20067;-69
2023/06/19 01:33:01;;;;;;;6.65;3.92;;;;;;;;;;5031156;28;20060;-69
2023/06/19 01:35:29;;;;;;;5.80;3.30;;;;;;;;;;5020778;28;20092;-69
2023/06/19 01:37:57;;;;;;;6.10;3.90;;;;;;;;;;5035325;28;20193;-69
2023/06/19 01:40:27;;;;;;;7.68;4.20;;;;;;;;;;5030230;28;20084;-69
2023/06/19 01:42:55;;;;;;;5.15;3.80;;;;;;;;;;5048826;28;20436;-69
2023/06/19 01:45:22;;;;;;;5.20;3.67;;;;;;;;;;5043578;28;20454;-69
2023/06/19 01:47:49;;;;;;;5.78;3.80;;;;;;;;;;5043553;28;20049;-69
2023/06/19 01:50:16;;;;;;;4.20;3.72;;;;;;;;;;5044278;28;20495;-69
2023/06/19 01:52:45;;;;;;;8.10;3.70;;;;;;;;;;5045658;28;20080;-69
2023/06/19 01:55:12;;;;;;;5.60;3.92;;;;;;;;;;5045911;28;20056;-69
2023/06/19 01:57:41;;;;;;;5.75;4.20;;;;;;;;;;5037218;28;20060;-68
2023/06/19 02:00:10;;;;;;;7.57;4.13;;;;;;;;;;5054384;28;20059;-69
2023/06/19 02:02:37;;;;;;;4.63;3.70;;;;;;;;;;5050857;28;20053;-69
2023/06/19 02:05:04;;;;;;;6.85;3.80;;;;;;;;;;5052176;28;20044;-68
2023/06/19 02:07:32;;;;;;;6.20;3.70;;;;;;;;;;5043852;28;20045;-69
2023/06/19 02:09:59;;;;;;;5.20;3.70;;;;;;;;;;5052118;28;20450;-69
2023/06/19 02:12:26;;;;;;;6.05;3.67;;;;;;;;;;5040479;28;20046;-69
2023/06/19 02:14:55;;;;;;;4.32;3.50;;;;;;;;;;5044548;28;20049;-69
2023/06/19 02:17:22;;;;;;;5.57;3.83;;;;;;;;;;5049859;28;20045;-69
2023/06/19 02:19:49;;;;;;;5.30;3.80;;;;;;;;;;5054474;28;20051;-69
2023/06/19 02:22:16;;;;;;;5.13;3.55;;;;;;;;;;5045958;28;20045;-69
2023/06/19 02:24:44;;;;;;;5.05;3.38;;;;;;;;;;5040014;28;20045;-69
2023/06/19 02:27:12;;;;;;;5.55;3.42;;;;;;;;;;5044993;28;20052;-69
2023/06/19 02:29:39;;;;;;;5.28;3.75;;;;;;;;;;5052793;28;20045;-69
2023/06/19 02:32:08;;;;;;;5.13;3.40;;;;;;;;;;5044760;28;20503;-69
2023/06/19 02:34:35;;;;;;;5.50;3.38;;;;;;;;;;5053213;28;20045;-69
2023/06/19 02:37:02;;;;;;;4.32;3.35;;;;;;;;;;5042199;28;20060;-69
2023/06/19 02:39:30;;;;;;;4.85;3.47;;;;;;;;;;5023949;28;20072;-69
2023/06/19 02:41:57;;;;;;;3.45;2.97;;;;;;;;;;5043482;28;20048;-69
2023/06/19 02:44:25;;;;;;;5.80;4.03;;;;;;;;;;5046454;28;20061;-69
2023/06/19 02:46:52;;;;;;;4.40;3.28;;;;;;;;;;5045066;28;20441;-69
2023/06/19 02:49:21;;;;;;;8.93;3.80;;;;;;;;;;5032789;28;20063;-69
2023/06/19 02:51:48;;;;;;;6.10;4.00;;;;;;;;;;5032562;28;20099;-69
2023/06/19 02:54:15;;;;;;;5.05;3.65;;;;;;;;;;5038442;28;20063;-69
2023/06/19 02:56:42;;;;;;;6.25;3.85;;;;;;;;;;5050607;28;20504;-69
2023/06/19 02:59:09;;;;;;;6.20;4.00;;;;;;;;;;5043267;28;20045;-69
2023/06/19 03:01:37;;;;;;;7.03;4.50;;;;;;;;;;5051742;28;20226;-69
2023/06/19 03:04:04;;;;;;;6.20;4.07;;;;;;;;;;5045968;28;20488;-69
2023/06/19 03:06:39;;;;;;;6.18;3.67;;;;;;;;;;5038960;28;20068;-69
2023/06/19 03:09:12;;;;;;;6.20;3.67;;;;;;;;;;5034142;28;20055;-69
2023/06/19 03:11:40;;;;;;;6.18;3.95;;;;;;;;;;5035249;28;20435;-69
2023/06/19 03:14:07;;;;;;;6.53;3.58;;;;;;;;;;5042275;28;20095;-69
2023/06/19 03:16:35;;;;;;;4.93;3.17;;;;;;;;;;5039124;28;20140;-70
2023/06/19 03:19:02;;;;;;;5.97;4.30;;;;;;;;;;5035570;28;20051;-69
2023/06/19 03:21:29;;;;;;;5.72;3.92;;;;;;;;;;5036936;28;20062;-69
2023/06/19 03:23:58;;;;;;;6.05;3.88;;;;;;;;;;5027207;28;20060;-69
2023/06/19 03:26:25;;;;;;;4.70;3.88;;;;;;;;;;5038806;28;20081;-69
2023/06/19 03:28:53;;;;;;;6.20;4.05;;;;;;;;;;5049755;28;20078;-69
2023/06/19 03:31:20;;;;;;;6.53;4.00;;;;;;;;;;5038486;28;20131;-69
2023/06/19 03:33:48;;;;;;;6.90;3.83;;;;;;;;;;5045497;28;20415;-69
2023/06/19 03:36:15;;;;;;;5.57;3.92;;;;;;;;;;5044952;28;20060;-66
2023/06/19 03:38:42;;;;;;;6.68;3.75;;;;;;;;;;5043708;28;20049;-67
2023/06/19 03:41:11;;;;;;;9.95;3.70;;;;;;;;;;5045689;28;21170;-67
2023/06/19 03:43:39;;;;;;;5.13;3.60;;;;;;;;;;5039810;28;20580;-66
2023/06/19 03:46:06;;;;;;;4.22;3.28;;;;;;;;;;5018383;28;20057;-68
2023/06/19 03:48:33;;;;;;;5.15;3.20;;;;;;;;;;5029964;28;20055;-68
2023/06/19 03:51:01;;;;;;;4.15;3.13;;;;;;;;;;5048398;28;20408;-68
2023/06/19 03:53:28;;;;;;;5.35;3.22;;;;;;;;;;5042527;28;20068;-68
2023/06/19 03:55:56;;;;;;;5.90;3.00;;;;;;;;;;5048859;28;20487;-67
2023/06/19 03:58:24;;;;;;;4.13;2.80;;;;;;;;;;5047097;28;20059;-67
2023/06/19 04:00:53;;;;;;;4.18;2.40;;;;;;;;;;5029595;28;20523;-67
2023/06/19 04:03:20;;;;;;;4.65;2.40;;;;;;;;;;5031318;28;20148;-67
2023/06/19 04:05:47;;;;;;;5.22;2.28;;;;;;;;;;5038673;28;20052;-67
2023/06/19 04:08:14;;;;;;;2.85;2.00;;;;;;;;;;5050377;28;20048;-66
2023/06/19 04:10:42;;;;;;;2.90;1.77;;;;;;;;;;5038986;28;21577;-67
2023/06/19 04:13:09;;;;;;;3.10;1.92;;;;;;;;;;5035974;28;20038;-67
2023/06/19 04:15:37;;;;;;;3.65;1.92;;;;;;;;;;5031021;28;20053;-68
2023/06/19 04:18:05;;;;;;;2.63;1.67;;;;;;;;;;5050149;28;20111;-67
2023/06/19 04:20:33;;;;;;;2.25;1.70;;;;;;;;;;5036612;28;20049;-67
2023/06/19 04:23:00;;;;;;;3.08;1.55;;;;;;;;;;5031085;28;20051;-67
2023/06/19 04:25:28;;;;;;;2.97;1.98;;;;;;;;;;5021350;28;20129;-67
2023/06/19 04:27:55;;;;;;;1.90;1.40;;;;;;;;;;5045648;28;20508;-68
2023/06/19 04:30:22;;;;;;;2.17;1.45;;;;;;;;;;5044277;28;20053;-67
2023/06/19 04:32:52;;;;;;;2.58;1.70;;;;;;;;;;5046547;28;20045;-67
2023/06/19 04:35:20;;;;;;;3.63;1.77;;;;;;;;;;5048040;28;20414;-67
2023/06/19 04:37:48;;;;;;;2.63;1.60;;;;;;;;;;5047308;28;20475;-67
2023/06/19 04:40:15;;;;;;;1.83;1.35;;;;;;;;;;5045560;28;20592;-67
2023/06/19 04:42:43;;;;;;;2.08;1.48;;;;;;;;;;5029843;28;20434;-68
2023/06/19 04:45:10;;;;;;;2.63;1.73;;;;;;;;;;5027489;28;20496;-68
2023/06/19 04:47:38;;;;;;;3.88;1.92;;;;;;;;;;5048042;28;20080;-67
2023/06/19 04:50:08;;;;;;;3.80;1.90;;;;;;;;;;5041608;28;20067;-67
2023/06/19 04:52:35;;;;;;;2.95;2.20;;;;;;;;;;5039252;28;20049;-68
2023/06/19 04:55:03;;;;;;;2.70;2.20;;;;;;;;;;5042270;28;20052;-68
2023/06/19 04:57:30;;;;;;;2.78;2.33;;;;;;;;;;5048298;28;20514;-69
2023/06/19 04:59:57;;;;;;;2.90;2.45;;;;;;;;;;5043621;28;20053;-67
2023/06/19 05:02:25;;;;;;;3.22;2.80;;;;;;;;;;5042926;28;20057;-67
2023/06/19 05:04:52;;;;;;;3.70;2.55;;;;;;;;;;5044623;28;20079;-68
2023/06/19 05:07:20;;;;;;;4.47;2.92;;;;;;;;;;5044488;28;20045;-69
2023/06/19 05:09:48;;;;;;;4.28;2.90;;;;;;;;;;5041691;28;20053;-68
2023/06/19 05:12:15;;;;;;;4.80;3.08;;;;;;;;;;5026476;28;20067;-69
2023/06/19 05:14:42;;;;;;;5.30;3.40;;;;;;;;;;5023965;28;20050;-69
2023/06/19 05:17:09;;;;;;;5.35;3.50;;;;;;;;;;5036519;28;20049;-67
2023/06/19 05:19:37;;;;;;;5.05;3.70;;;;;;;;;;5042901;28;20662;-67
2023/06/19 05:22:04;;;;;;;4.95;3.50;;;;;;;;;;5043858;28;20053;-67
2023/06/19 05:24:32;;;;;;;5.63;3.97;;;;;;;;;;5020287;28;20057;-68
2023/06/19 05:27:00;;;;;;;6.60;3.95;;;;;;;;;;5031008;28;20064;-67
2023/06/19 05:29:27;;;;;;;6.50;4.57;;;;;;;;;;5036432;28;20385;-66
2023/06/19 05:31:54;;;;;;;8.68;6.03;;;;;;;;;;5037132;28;20484;-67
2023/06/19 05:34:22;;;;;;;9.45;5.82;;;;;;;;;;5051711;28;20072;-68
2023/06/19 05:36:49;;;;;;;8.88;5.75;;;;;;;;;;5044311;28;20133;-66
2023/06/19 05:39:18;;;;;;;10.38;6.95;;;;;;;;;;5046517;28;20061;-68
2023/06/19 05:41:47;;;;;;;13.48;7.93;;;;;;;;;;5036692;28;20433;-67
2023/06/19 05:44:15;;;;;;;12.82;7.82;;;;;;;;;;5052537;28;20052;-67
2023/06/19 05:46:43;;;;;;;14.27;9.35;;;;;;;;;;5050149;28;20045;-67
2023/06/19 05:49:10;;;;;;;14.23;10.02;;;;;;;;;;5037988;28;20052;-67
2023/06/19 05:51:37;;;;;;;16.52;12.25;;;;;;;;;;5045344;28;20056;-66
2023/06/19 05:54:04;;;;;;;17.45;12.88;;;;;;;;;;5040293;28;20048;-67
2023/06/19 05:56:32;;;;;;;17.58;13.40;;;;;;;;;;5040979;28;20051;-66
2023/06/19 05:59:02;;;;;;;19.63;13.75;;;;;;;;;;5048409;28;20049;-67
2023/06/19 06:01:29;;;;;;;17.70;14.07;;;;;;;;;;5048512;28;20045;-67
2023/06/19 06:03:56;;;;;;;17.27;12.52;;;;;;;;;;5043643;28;20053;-66
2023/06/19 06:06:25;;;;;;;15.93;11.60;;;;;;;;;;5050589;28;20048;-65
2023/06/19 06:08:52;;;;;;;16.05;11.88;;;;;;;;;;5027073;28;20170;-66
2023/06/19 06:11:19;;;;;;;18.98;12.57;;;;;;;;;;5042143;28;20047;-67
2023/06/19 06:13:47;;;;;;;15.77;11.57;;;;;;;;;;5035921;28;20037;-66
2023/06/19 06:16:15;;;;;;;19.45;12.65;;;;;;;;;;5039664;28;20068;-67
2023/06/19 06:18:43;;;;;;;18.80;12.65;;;;;;;;;;5049450;28;20467;-67
2023/06/19 06:21:12;;;;;;;19.23;13.30;;;;;;;;;;5055580;28;20059;-66
2023/06/19 06:23:39;;;;;;;19.50;13.90;;;;;;;;;;5047502;28;20061;-68
2023/06/19 06:26:07;;;;;;;20.98;14.20;;;;;;;;;;5040708;28;20496;-67
2023/06/19 06:28:34;;;;;;;20.95;13.68;;;;;;;;;;5034593;28;20052;-66
2023/06/19 06:31:01;;;;;;;18.27;13.68;;;;;;;;;;5056149;28;20055;-67
2023/06/19 06:33:30;;;;;;;19.65;14.10;;;;;;;;;;5038227;28;20154;-68
2023/06/19 06:35:59;;;;;;;17.95;12.45;;;;;;;;;;5046222;28;20531;-66
2023/06/19 06:38:26;;;;;;;21.80;13.98;;;;;;;;;;5039546;28;20052;-66
2023/06/19 06:40:53;;;;;;;21.23;13.95;;;;;;;;;;5045533;28;20083;-68
2023/06/19 06:43:21;;;;;;;21.33;13.93;;;;;;;;;;5034550;28;20049;-67
2023/06/19 06:45:48;;;;;;;20.15;13.43;;;;;;;;;;5036900;28;20415;-67
2023/06/19 06:48:15;;;;;;;23.75;14.93;;;;;;;;;;5047979;28;20045;-67
2023/06/19 06:50:44;;;;;;;25.90;12.85;;;;;;;;;;5046573;28;20044;-66
2023/06/19 06:53:11;;;;;;;25.92;14.65;;;;;;;;;;5035399;28;20105;-67
2023/06/19 06:55:39;;;;;;;24.92;14.55;;;;;;;;;;5048225;28;20051;-66
2023/06/19 06:58:06;;;;;;;26.33;15.30;;;;;;;;;;5026696;28;20132;-68
2023/06/19 07:00:33;;;;;;;24.58;14.88;;;;;;;;;;5046972;28;20049;-66
2023/06/19 07:03:00;;;;;;;26.70;14.98;;;;;;;;;;5031183;28;20053;-66
2023/06/19 07:05:29;;;;;;;23.27;13.98;;;;;;;;;;5042538;28;20069;-68
2023/06/19 07:07:58;;;;;;;22.60;13.32;;;;;;;;;;5022744;28;20148;-66
2023/06/19 07:10:25;;;;;;;22.42;12.07;;;;;;;;;;5042987;28;20067;-67
2023/06/19 07:12:52;;;;;;;24.30;13.57;;;;;;;;;;5049030;28;20057;-67
2023/06/19 07:15:20;;;;;;;24.77;14.02;;;;;;;;;;5034107;28;20045;-66
2023/06/19 07:17:47;;;;;;;21.73;13.25;;;;;;;;;;5044660;28;20052;-67
2023/06/19 07:20:14;;;;;;;25.77;14.30;;;;;;;;;;5031456;28;20045;-65
2023/06/19 07:22:42;;;;;;;27.10;14.10;;;;;;;;;;5045895;28;20044;-66
2023/06/19 07:25:11;;;;;;;26.38;13.95;;;;;;;;;;5032055;28;20049;-67
2023/06/19 07:27:39;;;;;;;25.00;13.82;;;;;;;;;;5037823;28;20144;-66
2023/06/19 07:30:07;;;;;;;25.50;13.95;;;;;;;;;;5044006;28;20519;-67
2023/06/19 07:32:34;;;;;;;26.33;14.00;;;;;;;;;;5037923;28;20411;-67
2023/06/19 07:35:01;;;;;;;26.45;14.43;;;;;;;;;;5048225;28;20060;-66
2023/06/19 07:37:28;;;;;;;25.55;13.90;;;;;;;;;;5050778;28;20045;-66
2023/06/19 07:39:56;;;;;;;26.00;13.35;;;;;;;;;;5051044;28;20056;-67
2023/06/19 07:42:24;;;;;;;25.00;13.40;;;;;;;;;;5051448;28;20106;-66
2023/06/19 07:44:52;;;;;;;23.20;13.40;;;;;;;;;;5029466;28;20411;-67
2023/06/19 07:47:20;;;;;;;22.45;11.57;;;;;;;;;;5037633;28;20057;-67
2023/06/19 07:49:48;;;;;;;17.42;10.88;;;;;;;;;;5035987;28;20468;-67
2023/06/19 07:52:15;;;;;;;18.17;9.57;;;;;;;;;;5046316;28;20076;-67
2023/06/19 07:54:52;;;;;;;16.95;10.32;;;;;;;;;;5041679;28;20041;-66
2023/06/19 07:57:19;;;;;;;17.17;8.40;;;;;;;;;;5024480;28;20057;-67
2023/06/19 07:59:49;;;;;;;11.70;7.90;;;;;;;;;;5043856;28;20041;-66
2023/06/19 08:02:16;;;;;;;13.20;7.88;;;;;;;;;;5031295;28;20787;-66
2023/06/19 08:04:43;;;;;;;12.32;7.63;;;;;;;;;;5047931;28;20064;-66
2023/06/19 08:07:10;;;;;;;11.65;7.80;;;;;;;;;;5042735;28;20049;-69
2023/06/19 08:09:38;;;;;;;9.98;6.60;;;;;;;;;;5050602;28;20049;-66
2023/06/19 08:12:05;;;;;;;10.70;6.78;;;;;;;;;;5044040;28;20511;-67
2023/06/19 08:14:32;;;;;;;13.57;7.50;;;;;;;;;;5047894;28;20045;-66
2023/06/19 08:17:01;;;;;;;11.88;7.32;;;;;;;;;;5042132;28;20056;-67
2023/06/19 08:19:28;;;;;;;14.20;8.18;;;;;;;;;;5044871;28;20059;-68
2023/06/19 08:21:56;;;;;;;15.30;8.18;;;;;;;;;;5042202;28;20067;-65
2023/06/19 08:24:23;;;;;;;11.23;8.02;;;;;;;;;;5054353;28;20487;-66
2023/06/19 08:26:51;;;;;;;14.80;8.55;;;;;;;;;;5049363;28;20144;-66
2023/06/19 08:29:19;;;;;;;14.40;8.63;;;;;;;;;;5033159;28;20049;-68
2023/06/19 08:31:46;;;;;;;13.50;8.52;;;;;;;;;;5039859;28;20046;-67
2023/06/19 08:34:14;;;;;;;15.10;9.02;;;;;;;;;;5044470;28;20048;-66
2023/06/19 08:36:42;;;;;;;13.10;8.43;;;;;;;;;;5042352;28;20041;-67
2023/06/19 08:39:09;;;;;;;14.02;8.48;;;;;;;;;;5047874;28;20144;-66
2023/06/19 08:41:38;;;;;;;12.00;8.35;;;;;;;;;;5035347;28;20393;-66
2023/06/19 08:44:05;;;;;;;14.98;8.77;;;;;;;;;;5043123;28;20476;-66
2023/06/19 08:46:34;;;;;;;13.70;8.00;;;;;;;;;;5049568;28;20045;-66
2023/06/19 08:49:01;;;;;;;11.45;7.65;;;;;;;;;;5025917;28;20111;-67
2023/06/19 08:51:31;;;;;;;11.43;7.38;;;;;;;;;;5049035;28;20051;-67
2023/06/19 08:54:03;;;;;;;12.02;7.10;;;;;;;;;;5041391;28;20057;-66
2023/06/19 08:56:33;;;;;;;11.10;7.20;;;;;;;;;;5051373;28;20511;-66
2023/06/19 08:59:09;;;;;;;9.65;6.97;;;;;;;;;;5038926;28;20429;-66
2023/06/19 09:01:36;;;;;;;10.70;7.30;;;;;;;;;;5051662;28;20045;-67
2023/06/19 09:04:09;;;;;;;14.35;8.15;;;;;;;;;;5059743;28;20480;-67
2023/06/19 09:06:37;;;;;;;;;;;;;;;;;;5038869;28;20427;-67
2023/06/19 09:09:10;;;;;;;13.57;7.28;;;;;;;;;;5040201;28;20304;-66
2023/06/19 09:11:43;;;;;;;10.57;6.60;;;;;;;;;;5038276;28;20048;-67
2023/06/19 09:14:10;;;;;;;10.67;6.37;;;;;;;;;;5051607;28;20045;-66
2023/06/19 09:16:39;;;;;;;14.10;7.22;;;;;;;;;;5041435;28;20112;-66
2023/06/19 09:19:06;;;;;;;12.98;7.47;;;;;;;;;;5053519;28;20454;-67
2023/06/19 09:21:33;;;;;;;13.20;7.20;;;;;;;;;;5033912;28;20392;-67
2023/06/19 09:24:04;;;;;;;11.85;6.68;;;;;;;;;;5046943;28;20064;-67
2023/06/19 09:26:33;;;;;;;11.80;7.70;;;;;;;;;;5045368;28;20075;-67
2023/06/19 09:29:00;;;;;;;15.27;7.00;;;;;;;;;;5037793;28;20060;-66
2023/06/19 09:31:34;;;;;;;10.38;6.80;;;;;;;;;;5047196;28;20057;-68
2023/06/19 09:34:01;;;;;;;11.32;6.35;;;;;;;;;;5022959;28;20128;-67
2023/06/19 09:36:28;;;;;;;12.07;7.13;;;;;;;;;;5019879;28;20483;-67
2023/06/19 09:38:56;;;;;;;10.15;6.57;;;;;;;;;;5043932;28;20099;-67
2023/06/19 09:41:25;;;;;;;11.15;6.97;;;;;;;;;;5045880;28;20049;-67
2023/06/19 09:43:57;;;;;;;10.55;6.97;;;;;;;;;;5058407;28;20464;-68
2023/06/19 09:46:27;;;;;;;11.50;7.55;;;;;;;;;;5034195;28;20049;-67
2023/06/19 09:48:58;;;;;;;12.38;7.80;;;;;;;;;;5044112;28;20442;-67
2023/06/19 09:51:32;;;;;;;12.27;7.65;;;;;;;;;;5036925;28;20095;-66
2023/06/19 09:54:02;;;;;;;12.85;7.45;;;;;;;;;;5047183;28;20499;-67
2023/06/19 09:56:29;;;;;;;13.93;7.43;;;;;;;;;;5040482;28;20056;-67
2023/06/19 09:58:59;;;;;;;16.23;7.70;;;;;;;;;;5049018;28;20042;-67
2023/06/19 10:01:27;;;;;;;13.95;7.95;;;;;;;;;;5036094;28;20052;-66
2023/06/19 10:04:03;;;;;;;13.07;7.90;;;;;;;;;;5023079;28;21513;-67
2023/06/19 10:06:30;;;;;;;13.32;7.97;;;;;;;;;;5031145;28;20796;-66
2023/06/19 10:09:07;;;;;;;16.13;7.85;;;;;;;;;;5048534;28;20123;-68
2023/06/19 10:11:46;;;;;;;13.20;7.45;;;;;;;;;;5040451;28;20059;-67
2023/06/19 10:14:18;;;;;;;12.73;7.90;;;;;;;;;;5047222;28;20057;-68
2023/06/19 10:16:45;;;;;;;12.43;7.80;;;;;;;;;;5046156;28;20091;-68
2023/06/19 10:19:16;;;;;;;10.32;6.63;;;;;;;;;;5048824;28;20044;-67
2023/06/19 10:21:47;;;;;;;11.10;7.07;;;;;;;;;;5027789;28;20088;-66
2023/06/19 10:24:19;;;;;;;12.55;7.40;;;;;;;;;;5047120;28;20682;-68
2023/06/19 10:26:57;;;;;;;13.70;7.75;;;;;;;;;;5051915;28;20048;-67
2023/06/19 10:29:27;;;;;;;14.10;6.97;;;;;;;;;;5045625;28;20145;-68
2023/06/19 10:31:54;;;;;;;13.60;7.53;;;;;;;;;;5052883;28;20083;-68
2023/06/19 10:34:21;;;;;;;17.67;8.40;;;;;;;;;;5044635;28;20531;-69
2023/06/19 10:36:48;;;;;;;14.63;8.50;;;;;;;;;;5052268;28;20052;-68
2023/06/19 10:39:16;;;;;;;14.57;8.55;;;;;;;;;;5035454;28;20133;-67
2023/06/19 10:41:43;;;;;;;16.58;9.07;;;;;;;;;;5048717;28;20060;-68
2023/06/19 10:44:12;;;;;;;12.93;8.60;;;;;;;;;;5044855;28;20064;-66
2023/06/19 10:46:41;;;;;;;16.27;10.07;;;;;;;;;;5045259;28;20055;-69
2023/06/19 10:49:10;;;;;;;16.80;9.77;;;;;;;;;;5044210;28;20544;-68
2023/06/19 10:51:37;;;;;;;16.40;10.40;;;;;;;;;;5042848;28;20059;-67
2023/06/19 10:54:05;;;;;;;17.17;10.52;;;;;;;;;;5047988;28;20055;-68
2023/06/19 10:56:32;;;;;;;18.48;10.75;;;;;;;;;;5036535;28;20066;-68
2023/06/19 10:59:00;;;;;;;16.65;10.68;;;;;;;;;;5035277;28;20065;-67
2023/06/19 11:01:37;;;;;;;17.17;10.18;;;;;;;;;;5029498;28;20052;-68
2023/06/19 11:04:06;;;;;;;15.27;10.35;;;;;;;;;;5026903;28;20057;-68
2023/06/19 11:06:33;;;;;;;15.95;10.23;;;;;;;;;;5027321;28;20411;-67
2023/06/19 11:09:03;;;;;;;14.80;10.35;;;;;;;;;;5040085;28;20072;-68
2023/06/19 11:11:37;;;;;;;15.65;9.30;;;;;;;;;;5033783;28;20057;-69
2023/06/19 11:14:04;;;;;;;15.65;9.40;;;;;;;;;;5046916;28;20051;-69
2023/06/19 11:16:31;;;;;;;14.13;8.32;;;;;;;;;;5038463;28;20056;-68
2023/06/19 11:18:59;;;;;;;12.00;7.93;;;;;;;;;;5042015;28;20048;-68
2023/06/19 11:21:32;;;;;;;11.20;7.22;;;;;;;;;;5038394;28;20057;-69
2023/06/19 11:24:00;;;;;;;13.18;6.88;;;;;;;;;;5032524;28;20484;-67
2023/06/19 11:26:28;;;;;;;10.40;6.18;;;;;;;;;;5032072;28;20053;-67
2023/06/19 11:28:55;;;;;;;9.50;6.35;;;;;;;;;;5039300;28;20068;-67
2023/06/19 11:31:26;;;;;;;11.07;6.93;;;;;;;;;;5034344;28;20566;-68
2023/06/19 11:33:57;;;;;;;9.15;6.40;;;;;;;;;;5039827;28;20041;-68
2023/06/19 11:36:25;;;;;;;10.20;6.78;;;;;;;;;;5034790;28;20451;-67
2023/06/19 11:38:54;;;;;;;9.70;5.93;;;;;;;;;;5040972;28;20496;-67
2023/06/19 11:41:28;;;;;;;7.72;5.78;;;;;;;;;;5035763;28;20063;-67
2023/06/19 11:44:01;;;;;;;8.60;5.95;;;;;;;;;;5042684;28;20045;-67
2023/06/19 11:46:32;;;;;;;9.20;6.32;;;;;;;;;;5038313;28;20060;-68
2023/06/19 11:49:09;;;;;;;9.77;5.80;;;;;;;;;;5040861;28;20390;-68
2023/06/19 11:51:36;;;;;;;9.70;5.70;;;;;;;;;;5037985;28;20573;-67
2023/06/19 11:54:07;;;;;;;7.13;4.65;;;;;;;;;;5035331;28;20045;-68
2023/06/19 11:56:35;;;;;;;6.70;4.50;;;;;;;;;;5038488;28;20049;-68
2023/06/19 11:59:03;;;;;;;7.03;4.80;;;;;;;;;;5039011;28;20052;-68
2023/06/19 12:01:30;;;;;;;5.75;4.22;;;;;;;;;;5020610;28;20056;-69
2023/06/19 12:03:58;;;;;;;5.68;4.43;;;;;;;;;;5033740;28;20048;-69
2023/06/19 12:06:26;;;;;;;5.22;3.92;;;;;;;;;;5046674;28;20041;-68
2023/06/19 12:08:53;;;;;;;6.70;4.38;;;;;;;;;;5042662;28;20049;-67
2023/06/19 12:11:21;;;;;;;5.82;3.90;;;;;;;;;;5023220;28;20061;-68
2023/06/19 12:13:49;;;;;;;4.88;3.95;;;;;;;;;;5046704;28;20518;-66
2023/06/19 12:16:16;;;;;;;4.47;3.10;;;;;;;;;;5045885;28;20503;-68
2023/06/19 12:18:43;;;;;;;5.72;2.88;;;;;;;;;;5046882;28;20045;-68
2023/06/19 12:21:11;;;;;;;4.43;3.20;;;;;;;;;;5029645;28;20053;-69
2023/06/19 12:23:38;;;;;;;4.45;3.70;;;;;;;;;;5044735;28;20516;-67
2023/06/19 12:26:05;;;;;;;3.92;3.17;;;;;;;;;;5028037;28;20057;-69
2023/06/19 12:28:34;;;;;;;3.90;3.10;;;;;;;;;;5017627;28;20053;-69
2023/06/19 12:31:03;;;;;;;5.05;3.35;;;;;;;;;;5035888;28;20060;-68
2023/06/19 12:33:33;;;;;;;3.47;2.90;;;;;;;;;;5038732;28;20091;-69
2023/06/19 12:36:01;;;;;;;4.15;3.10;;;;;;;;;;5044100;28;20057;-69
2023/06/19 12:38:28;;;;;;;4.38;3.10;;;;;;;;;;5046707;28;20049;-68
2023/06/19 12:40:55;;;;;;;9.18;3.63;;;;;;;;;;5039757;28;20049;-68
2023/06/19 12:43:22;;;;;;;5.03;3.80;;;;;;;;;;5038425;28;20124;-69
2023/06/19 12:45:51;;;;;;;5.13;3.40;;;;;;;;;;5041422;28;20460;-69
2023/06/19 12:48:18;;;;;;;5.28;3.55;;;;;;;;;;5038756;28;20135;-67
2023/06/19 12:50:46;;;;;;;10.75;4.30;;;;;;;;;;5045503;28;20130;-68
2023/06/19 12:53:13;;;;;;;7.78;3.95;;;;;;;;;;5020163;28;20072;-68
2023/06/19 12:55:40;;;;;;;4.32;3.63;;;;;;;;;;5036619;28;20057;-68
2023/06/19 12:58:07;;;;;;;5.85;3.42;;;;;;;;;;5044055;28;20487;-68
2023/06/19 13:00:35;;;;;;;6.45;4.32;;;;;;;;;;5042884;28;20056;-70
2023/06/19 13:03:03;;;;;;;6.00;4.90;;;;;;;;;;5038929;28;20045;-67
2023/06/19 13:05:31;;;;;;;6.15;3.92;;;;;;;;;;5036603;28;20412;-68
2023/06/19 13:07:58;;;;;;;6.25;3.65;;;;;;;;;;5042711;28;20527;-69
2023/06/19 13:10:25;;;;;;;4.50;3.10;;;;;;;;;;5040321;28;20056;-68
2023/06/19 13:12:52;;;;;;;5.30;3.28;;;;;;;;;;5041911;28;20415;-68
2023/06/19 13:15:19;;;;;;;7.20;3.92;;;;;;;;;;5039736;28;20046;-68
2023/06/19 13:17:47;;;;;;;4.85;3.40;;;;;;;;;;5042390;28;20080;-69
2023/06/19 13:20:15;;;;;;;4.72;3.38;;;;;;;;;;5019934;28;20110;-70
2023/06/19 13:22:42;;;;;;;7.47;3.10;;;;;;;;;;5036573;28;20376;-68
2023/06/19 13:25:10;;;;;;;8.15;4.07;;;;;;;;;;5048027;28;20456;-67
2023/06/19 13:27:37;;;;;;;5.70;3.55;;;;;;;;;;5051745;28;20056;-67
2023/06/19 13:30:05;;;;;;;5.70;4.00;;;;;;;;;;5031675;28;20046;-69
2023/06/19 13:32:32;;;;;;;4.78;3.20;;;;;;;;;;5031213;28;20048;-69
2023/06/19 13:34:59;;;;;;;6.32;3.50;;;;;;;;;;5037780;28;20072;-69
2023/06/19 13:37:28;;;;;;;6.55;3.97;;;;;;;;;;5042871;28;20048;-69
2023/06/19 13:39:55;;;;;;;7.43;3.28;;;;;;;;;;5048756;28;20049;-68
2023/06/19 13:42:23;;;;;;;6.93;3.65;;;;;;;;;;5049670;28;20049;-68
2023/06/19 13:44:50;;;;;;;3.90;3.10;;;;;;;;;;5049176;28;20419;-69
2023/06/19 13:47:17;;;;;;;4.28;3.45;;;;;;;;;;5037668;28;20057;-69
2023/06/19 13:49:44;;;;;;;3.83;2.97;;;;;;;;;;5032011;28;20493;-68
2023/06/19 13:52:12;;;;;;;4.13;2.92;;;;;;;;;;5042588;28;20057;-70
2023/06/19 13:54:40;;;;;;;3.97;3.00;;;;;;;;;;5034642;28;20459;-69
2023/06/19 13:57:08;;;;;;;5.65;3.70;;;;;;;;;;5041179;28;20792;-69
2023/06/19 13:59:36;;;;;;;6.13;3.25;;;;;;;;;;5038440;28;20056;-69
2023/06/19 14:02:03;;;;;;;4.75;3.50;;;;;;;;;;5045463;28;20075;-69
2023/06/19 14:04:31;;;;;;;4.57;2.95;;;;;;;;;;5030001;28;20083;-68
2023/06/19 14:06:58;;;;;;;4.55;2.88;;;;;;;;;;5039050;28;20070;-69
2023/06/19 14:09:26;;;;;;;6.00;3.60;;;;;;;;;;5039780;28;20049;-69
2023/06/19 14:11:54;;;;;;;4.60;3.45;;;;;;;;;;5035263;28;20048;-68
2023/06/19 14:14:21;;;;;;;6.45;3.28;;;;;;;;;;5031937;28;20046;-68
2023/06/19 14:16:49;;;;;;;5.22;3.25;;;;;;;;;;5038927;28;20049;-69
2023/06/19 14:19:16;;;;;;;3.78;3.05;;;;;;;;;;5044295;28;20057;-68
2023/06/19 14:21:43;;;;;;;6.03;3.35;;;;;;;;;;5041211;28;20050;-68
2023/06/19 14:24:10;;;;;;;5.30;3.25;;;;;;;;;;5051759;28;20063;-68
2023/06/19 14:26:38;;;;;;;4.40;3.00;;;;;;;;;;5038894;28;20053;-69
2023/06/19 14:29:08;;;;;;;3.92;3.20;;;;;;;;;;5046376;28;20045;-69
2023/06/19 14:31:35;;;;;;;4.00;3.08;;;;;;;;;;5038544;28;20057;-68
2023/06/19 14:34:02;;;;;;;5.38;3.13;;;;;;;;;;5039760;28;20496;-68
2023/06/19 14:36:29;;;;;;;5.13;3.25;;;;;;;;;;5037147;28;20037;-69
2023/06/19 14:38:57;;;;;;;4.47;3.30;;;;;;;;;;5030799;28;20393;-69
2023/06/19 14:41:24;;;;;;;4.30;3.05;;;;;;;;;;5047437;28;20051;-69